Time;durP1;ratioP1;P1;durP2;ratioP2;P2;SDS_P1;SDS_P2;PMS_P1;PMS_P2;Temp;Humidity;BMP_temperature;BMP_pressure;BME280_temperature;BME280_humidity;BME280_pressure;Samples;Min_cycle;Max_cycle;Signal;HPM_P1;HPM_P2
2022/06/27 00:00:06;;;;;;;0.60;0.60;;;24.20;99.90;;;;;;5019775;28;20464;-76
2022/06/27 00:02:35;;;;;;;1.37;0.70;;;24.10;99.90;;;;;;5019181;28;20448;-76
2022/06/27 00:05:04;;;;;;;0.80;0.60;;;24.10;99.90;;;;;;5027720;28;20467;-77
2022/06/27 00:07:32;;;;;;;0.50;0.50;;;24.10;99.90;;;;;;5023457;28;20487;-76
2022/06/27 00:10:00;;;;;;;2.20;0.60;;;24.10;99.90;;;;;;5027712;28;20526;-76
2022/06/27 00:12:30;;;;;;;1.30;0.70;;;24.10;99.90;;;;;;5024546;28;20522;-76
2022/06/27 00:14:59;;;;;;;0.70;0.50;;;24.10;99.90;;;;;;5018343;28;20461;-76
2022/06/27 00:17:28;;;;;;;0.70;0.63;;;24.10;99.90;;;;;;5024647;28;20538;-78
2022/06/27 00:19:57;;;;;;;2.10;0.70;;;24.10;99.90;;;;;;5020795;28;20481;-78
2022/06/27 00:22:25;;;;;;;0.60;0.60;;;24.00;99.90;;;;;;5024978;28;20448;-78
2022/06/27 00:24:53;;;;;;;1.03;0.63;;;24.00;99.90;;;;;;5023225;28;20454;-77
2022/06/27 00:27:21;;;;;;;0.90;0.80;;;23.90;99.90;;;;;;5023636;28;20487;-78
2022/06/27 00:29:51;;;;;;;0.80;0.50;;;23.70;99.90;;;;;;5024387;28;20852;-77
2022/06/27 00:32:19;;;;;;;1.00;0.70;;;23.60;99.90;;;;;;5024973;28;20467;-77
2022/06/27 00:34:47;;;;;;;0.87;0.63;;;23.60;99.90;;;;;;5024219;28;20511;-78
2022/06/27 00:37:15;;;;;;;1.60;0.70;;;23.70;99.90;;;;;;5021715;28;20463;-83
2022/06/27 00:39:44;;;;;;;1.00;0.70;;;23.50;99.90;;;;;;5025286;28;21117;-83
2022/06/27 00:42:12;;;;;;;3.63;0.97;;;23.50;99.90;;;;;;5028070;28;21013;-84
2022/06/27 00:44:42;;;;;;;17.37;3.50;;;23.50;99.90;;;;;;5030504;28;20456;-83
2022/06/27 00:47:14;;;;;;;1.27;0.70;;;23.50;99.90;;;;;;5028206;28;20483;-83
2022/06/27 00:49:42;;;;;;;1.50;0.70;;;23.40;99.90;;;;;;5020612;28;20487;-83
2022/06/27 00:52:12;;;;;;;0.70;0.70;;;23.50;99.90;;;;;;5022630;28;20464;-84
2022/06/27 00:54:43;;;;;;;3.33;0.80;;;23.40;99.90;;;;;;5027092;28;20938;-83
2022/06/27 00:57:12;;;;;;;2.00;0.80;;;23.40;1.00;;;;;;5026595;28;20534;-84
2022/06/27 00:59:41;;;;;;;1.60;0.60;;;23.40;1.00;;;;;;5027207;28;20991;-84
2022/06/27 01:02:10;;;;;;;0.90;0.67;;;23.30;1.00;;;;;;5028153;28;20558;-84
2022/06/27 01:04:40;;;;;;;1.70;0.57;;;23.30;99.90;;;;;;5029907;28;20583;-83
2022/06/27 01:07:10;;;;;;;0.80;0.67;;;23.30;99.90;;;;;;5023669;28;20468;-83
2022/06/27 01:09:43;;;;;;;0.77;0.60;;;23.20;99.90;;;;;;5044579;28;20485;-83
2022/06/27 01:12:11;;;;;;;4.77;0.70;;;23.30;99.90;;;;;;5023459;28;20453;-84
2022/06/27 01:14:40;;;;;;;1.53;0.50;;;23.20;99.90;;;;;;5030873;28;20489;-83
2022/06/27 01:17:10;;;;;;;0.70;0.50;;;23.20;99.90;;;;;;5060691;28;20452;-83
2022/06/27 01:19:42;;;;;;;1.03;0.60;;;23.20;99.90;;;;;;5028526;28;20486;-84
2022/06/27 01:22:12;;;;;;;0.60;0.50;;;23.20;99.90;;;;;;5019405;28;20462;-84
2022/06/27 01:24:41;;;;;;;0.60;0.50;;;23.20;1.00;;;;;;5025155;28;20464;-84
2022/06/27 01:27:10;;;;;;;2.70;0.53;;;23.10;99.90;;;;;;5028659;28;20501;-84
2022/06/27 01:29:39;;;;;;;1.73;0.70;;;23.10;99.90;;;;;;5023309;28;20474;-84
2022/06/27 01:32:08;;;;;;;0.57;0.50;;;23.00;99.90;;;;;;5030462;28;20474;-85
2022/06/27 01:34:37;;;;;;;1.03;0.87;;;23.00;1.00;;;;;;5032270;28;20459;-85
2022/06/27 01:37:06;;;;;;;0.80;0.60;;;23.00;1.00;;;;;;5034318;28;20445;-85
2022/06/27 01:39:36;;;;;;;0.60;0.53;;;23.00;1.00;;;;;;5033787;28;20833;-85
2022/06/27 01:42:05;;;;;;;0.60;0.60;;;23.00;1.00;;;;;;5030247;28;20482;-84
2022/06/27 01:44:35;;;;;;;0.90;0.60;;;22.90;1.00;;;;;;5026423;28;20464;-85
2022/06/27 01:47:06;;;;;;;0.80;0.50;;;23.00;1.00;;;;;;5032483;28;20478;-85
2022/06/27 01:49:36;;;;;;;1.30;0.50;;;23.00;1.00;;;;;;5054305;28;20484;-84
2022/06/27 01:52:06;;;;;;;0.60;0.60;;;23.00;1.00;;;;;;5028872;28;20460;-84
2022/06/27 01:54:37;;;;;;;0.73;0.60;;;22.90;1.00;;;;;;5031306;28;20471;-84
2022/06/27 01:57:07;;;;;;;1.07;0.60;;;22.90;1.00;;;;;;5033875;28;20446;-84
2022/06/27 01:59:37;;;;;;;0.90;0.50;;;22.90;99.90;;;;;;5026676;28;20865;-85
2022/06/27 02:02:06;;;;;;;0.90;0.50;;;22.90;1.00;;;;;;5029089;28;20451;-86
2022/06/27 02:04:37;;;;;;;1.07;0.50;;;22.90;99.90;;;;;;5027848;28;20459;-84
2022/06/27 02:07:06;;;;;;;0.80;0.50;;;22.90;1.00;;;;;;5032105;28;20484;-84
2022/06/27 02:09:36;;;;;;;0.83;0.70;;;22.80;1.00;;;;;;5029868;28;20490;-85
2022/06/27 02:14:48;;;;;;;0.60;0.60;;;22.80;1.00;;;;;;5029408;28;20454;-84
2022/06/27 02:17:17;;;;;;;0.60;0.60;;;22.80;1.00;;;;;;5025062;28;20463;-83
2022/06/27 02:19:46;;;;;;;0.90;0.60;;;22.80;99.90;;;;;;5031261;28;20595;-84
2022/06/27 02:22:15;;;;;;;1.43;0.60;;;22.80;99.90;;;;;;5030352;28;20504;-83
2022/06/27 02:24:45;;;;;;;0.50;0.50;;;22.80;99.90;;;;;;5061531;28;20547;-86
2022/06/27 02:27:13;;;;;;;0.60;0.60;;;22.80;1.00;;;;;;5027153;28;20468;-84
2022/06/27 02:29:42;;;;;;;1.67;0.70;;;22.80;1.00;;;;;;5034117;28;20545;-83
2022/06/27 02:32:10;;;;;;;0.70;0.70;;;22.60;1.00;;;;;;5033791;28;20837;-84
2022/06/27 02:34:39;;;;;;;1.00;0.70;;;22.30;1.00;;;;;;5030191;28;20481;-85
2022/06/27 02:37:08;;;;;;;0.97;0.43;;;22.10;1.00;;;;;;5036975;28;20456;-84
2022/06/27 02:39:40;;;;;;;1.33;0.70;;;22.10;1.00;;;;;;5034850;28;20472;-84
2022/06/27 02:42:12;;;;;;;1.10;0.50;;;22.30;1.00;;;;;;5033756;28;20542;-84
2022/06/27 02:44:40;;;;;;;0.50;0.50;;;22.30;1.00;;;;;;5036756;28;20454;-84
2022/06/27 02:47:09;;;;;;;0.50;0.50;;;22.40;1.00;;;;;;5027420;28;20462;-83
2022/06/27 02:49:39;;;;;;;2.03;1.33;;;22.30;1.00;;;;;;5029982;28;21810;-85
2022/06/27 02:52:17;;;;;;;0.93;0.60;;;22.20;1.00;;;;;;5032608;28;20478;-82
2022/06/27 02:54:49;;;;;;;0.93;0.67;;;22.10;1.00;;;;;;5035233;28;20464;-83
2022/06/27 02:57:26;;;;;;;2.50;0.70;;;22.00;1.00;;;;;;5039871;28;20454;-83
2022/06/27 02:59:56;;;;;;;0.90;0.70;;;22.00;1.00;;;;;;5040584;28;20473;-81
2022/06/27 03:02:28;;;;;;;1.10;0.93;;;22.00;1.00;;;;;;5039195;28;20466;-83
2022/06/27 03:04:57;;;;;;;1.07;0.60;;;21.90;1.00;;;;;;5040387;28;21335;-81
2022/06/27 03:07:25;;;;;;;1.03;0.80;;;21.80;89.90;;;;;;5036308;28;20480;-81
2022/06/27 03:09:54;;;;;;;1.43;0.80;;;21.80;58.10;;;;;;5033997;28;20504;-84
2022/06/27 03:12:24;;;;;;;0.80;0.80;;;21.90;31.90;;;;;;5039978;28;20944;-85
2022/06/27 03:14:52;;;;;;;1.10;0.90;;;22.00;24.60;;;;;;5037149;28;20520;-83
2022/06/27 03:17:20;;;;;;;2.00;0.80;;;21.90;17.60;;;;;;5028259;28;20456;-84
2022/06/27 03:19:50;;;;;;;1.50;0.80;;;22.00;25.30;;;;;;5027157;28;20838;-85
2022/06/27 03:22:18;;;;;;;1.87;0.90;;;22.00;2.60;;;;;;5029075;28;20464;-86
2022/06/27 03:24:47;;;;;;;3.30;0.87;;;21.90;68.20;;;;;;5029244;28;20440;-83
2022/06/27 03:27:15;;;;;;;1.00;0.80;;;21.90;92.20;;;;;;5034445;28;20457;-84
2022/06/27 03:29:45;;;;;;;0.97;0.80;;;21.80;85.60;;;;;;5034406;28;20984;-84
2022/06/27 03:32:13;;;;;;;3.00;0.90;;;21.70;99.90;;;;;;5023941;28;20484;-83
2022/06/27 03:34:42;;;;;;;1.10;0.77;;;21.70;99.90;;;;;;5028698;28;20455;-84
2022/06/27 03:37:10;;;;;;;1.57;1.00;;;21.50;99.90;;;;;;5029151;28;20879;-84
2022/06/27 03:39:38;;;;;;;1.13;0.60;;;21.70;99.90;;;;;;5028560;28;20462;-84
2022/06/27 03:42:07;;;;;;;0.77;0.70;;;21.80;99.90;;;;;;5030238;28;20443;-83
2022/06/27 03:44:35;;;;;;;2.03;1.10;;;21.80;99.90;;;;;;5032676;28;20465;-83
2022/06/27 03:47:05;;;;;;;0.70;0.70;;;21.50;99.90;;;;;;5032455;28;20462;-84
2022/06/27 03:52:19;;;;;;;1.30;0.57;;;21.40;99.90;;;;;;5030303;28;20457;-84
2022/06/27 03:54:47;;;;;;;0.97;0.90;;;21.60;99.90;;;;;;5026645;28;20450;-84
2022/06/27 03:57:16;;;;;;;0.93;0.70;;;21.80;99.90;;;;;;5025210;28;20455;-85
2022/06/27 03:59:44;;;;;;;0.80;0.80;;;21.90;99.90;;;;;;5028017;28;20492;-84
2022/06/27 04:02:16;;;;;;;0.80;0.80;;;22.10;99.90;;;;;;5029156;28;20452;-84
2022/06/27 04:04:44;;;;;;;0.73;0.73;;;22.20;94.60;;;;;;5025017;28;20465;-84
2022/06/27 04:07:12;;;;;;;0.60;0.60;;;22.20;99.90;;;;;;5019581;28;20459;-86
2022/06/27 04:09:41;;;;;;;0.90;0.90;;;22.10;92.20;;;;;;5028202;28;20468;-84
2022/06/27 04:12:10;;;;;;;0.77;0.77;;;21.90;99.90;;;;;;5058067;28;20444;-83
2022/06/27 04:14:39;;;;;;;0.93;0.80;;;21.90;99.90;;;;;;5022499;28;20448;-82
2022/06/27 04:17:07;;;;;;;0.93;0.93;;;22.00;99.90;;;;;;5028051;28;20496;-83
2022/06/27 04:19:37;;;;;;;1.50;1.40;;;22.00;99.90;;;;;;5030225;28;20472;-83
2022/06/27 04:22:05;;;;;;;0.93;0.90;;;22.00;99.90;;;;;;5029330;28;20455;-83
2022/06/27 04:24:33;;;;;;;1.17;1.07;;;21.90;99.90;;;;;;5029695;28;20461;-83
2022/06/27 04:27:02;;;;;;;1.17;1.07;;;21.80;99.90;;;;;;5029783;28;20453;-77
2022/06/27 04:29:30;;;;;;;1.50;0.90;;;21.80;99.90;;;;;;5022171;28;21097;-76
2022/06/27 04:31:59;;;;;;;0.97;0.90;;;21.40;1.00;;;;;;5026342;28;20467;-76
2022/06/27 04:34:28;;;;;;;1.40;0.80;;;21.30;1.00;;;;;;5017350;28;20930;-76
2022/06/27 04:36:58;;;;;;;0.70;0.70;;;21.60;1.00;;;;;;5023549;28;20460;-79
2022/06/27 04:39:26;;;;;;;4.03;0.90;;;21.70;99.90;;;;;;5021288;28;20474;-79
2022/06/27 04:41:54;;;;;;;1.47;0.90;;;21.50;1.00;;;;;;5024955;28;20460;-76
2022/06/27 04:44:23;;;;;;;1.47;1.00;;;21.50;1.00;;;;;;5025192;28;20468;-76
2022/06/27 04:46:51;;;;;;;1.40;1.03;;;21.30;99.90;;;;;;5024727;28;20857;-75
2022/06/27 04:49:25;;;;;;;1.70;0.80;;;21.00;24.50;;;;;;5022711;28;20508;-79
2022/06/27 04:52:00;;;;;;;1.00;0.80;;;21.00;1.00;;;;;;5018504;28;20526;-79
2022/06/27 04:54:29;;;;;;;2.23;1.07;;;21.10;33.80;;;;;;5023625;28;21324;-80
2022/06/27 04:56:57;;;;;;;0.80;0.80;;;21.10;1.00;;;;;;5027564;28;20452;-79
2022/06/27 04:59:25;;;;;;;0.97;0.80;;;21.00;99.90;;;;;;5029511;28;20474;-79
2022/06/27 05:01:54;;;;;;;0.80;0.80;;;21.10;99.90;;;;;;5025800;28;20452;-79
2022/06/27 05:04:23;;;;;;;0.83;0.83;;;21.20;7.90;;;;;;5026721;28;20509;-80
2022/06/27 05:06:51;;;;;;;1.13;1.03;;;21.20;93.90;;;;;;5023462;28;20498;-80
2022/06/27 05:09:21;;;;;;;0.90;0.90;;;21.30;62.60;;;;;;5026813;28;20496;-81
2022/06/27 05:11:52;;;;;;;2.10;0.80;;;21.50;1.00;;;;;;5021061;28;20449;-79
2022/06/27 05:14:21;;;;;;;1.30;1.10;;;21.70;96.90;;;;;;5030374;28;20471;-79
2022/06/27 05:16:49;;;;;;;2.10;1.00;;;21.80;8.00;;;;;;5015440;28;20491;-80
2022/06/27 05:19:17;;;;;;;2.37;0.90;;;21.80;99.90;;;;;;5024359;28;20472;-79
2022/06/27 05:21:46;;;;;;;1.13;0.80;;;21.90;8.60;;;;;;5026887;28;20454;-79
2022/06/27 05:24:15;;;;;;;1.10;0.90;;;22.00;95.50;;;;;;5027740;28;20463;-80
2022/06/27 05:26:46;;;;;;;1.20;1.10;;;22.00;1.00;;;;;;5027284;28;20453;-79
2022/06/27 05:29:14;;;;;;;1.77;1.03;;;22.00;1.00;;;;;;5027661;28;20577;-79
2022/06/27 05:31:42;;;;;;;1.00;0.83;;;22.10;1.00;;;;;;5027895;28;20460;-79
2022/06/27 05:34:11;;;;;;;1.67;0.83;;;22.40;1.00;;;;;;5026322;28;20536;-79
2022/06/27 05:36:39;;;;;;;1.23;0.80;;;22.40;99.90;;;;;;5025907;28;20464;-80
2022/06/27 05:39:08;;;;;;;2.30;0.87;;;22.50;99.90;;;;;;5027952;28;20469;-80
2022/06/27 05:41:36;;;;;;;2.90;1.10;;;22.60;99.90;;;;;;5028027;28;20466;-80
2022/06/27 05:44:06;;;;;;;1.93;1.00;;;22.60;99.90;;;;;;5023831;28;20465;-79
2022/06/27 05:46:34;;;;;;;1.30;1.20;;;22.60;99.90;;;;;;5022713;28;20459;-79
2022/06/27 05:49:03;;;;;;;2.40;1.20;;;22.70;99.90;;;;;;5026392;28;20555;-79
2022/06/27 05:51:31;;;;;;;1.30;1.20;;;22.60;99.90;;;;;;5027531;28;20551;-79
2022/06/27 05:54:00;;;;;;;1.50;1.20;;;22.70;99.90;;;;;;5028386;28;20452;-80
2022/06/27 05:56:30;;;;;;;1.70;1.40;;;22.70;99.90;;;;;;5027979;28;20476;-80
2022/06/27 05:58:58;;;;;;;2.37;1.33;;;22.70;99.90;;;;;;5028683;28;20884;-80
2022/06/27 06:01:28;;;;;;;1.27;1.17;;;22.70;99.90;;;;;;5024589;28;20457;-79
2022/06/27 06:03:57;;;;;;;1.23;1.13;;;22.60;99.90;;;;;;5024537;28;20470;-80
2022/06/27 06:06:25;;;;;;;1.30;1.17;;;22.60;99.90;;;;;;5024811;28;20466;-80
2022/06/27 06:08:54;;;;;;;0.90;0.90;;;22.70;99.90;;;;;;5024349;28;20473;-79
2022/06/27 06:11:23;;;;;;;1.47;1.37;;;22.70;99.90;;;;;;5026480;28;20806;-79
2022/06/27 06:13:53;;;;;;;1.63;0.80;;;22.80;99.90;;;;;;5027331;28;20457;-79
2022/06/27 06:16:22;;;;;;;3.80;3.50;;;22.80;99.90;;;;;;5021987;28;20449;-79
2022/06/27 06:18:52;;;;;;;0.80;0.80;;;22.80;99.90;;;;;;5025102;28;20558;-79
2022/06/27 06:21:21;;;;;;;1.43;0.80;;;22.80;99.90;;;;;;5025771;28;20462;-79
2022/06/27 06:23:51;;;;;;;1.30;0.80;;;22.90;99.90;;;;;;5028521;28;21338;-79
2022/06/27 06:26:20;;;;;;;0.80;0.60;;;22.90;99.90;;;;;;5024763;28;20454;-80
2022/06/27 06:28:49;;;;;;;0.80;0.70;;;22.90;99.90;;;;;;5028950;28;21293;-80
2022/06/27 06:31:22;;;;;;;0.70;0.70;;;22.90;99.90;;;;;;5027791;28;20447;-79
2022/06/27 06:33:55;;;;;;;1.00;0.77;;;23.00;99.90;;;;;;5027768;28;20530;-79
2022/06/27 06:36:24;;;;;;;0.80;0.70;;;23.00;84.50;;;;;;5027041;28;20452;-79
2022/06/27 06:38:54;;;;;;;1.30;0.83;;;23.10;99.90;;;;;;5026618;28;20507;-80
2022/06/27 06:41:22;;;;;;;0.80;0.80;;;23.10;99.90;;;;;;5026453;28;20459;-79
2022/06/27 06:43:51;;;;;;;0.70;0.70;;;23.10;99.90;;;;;;5027279;28;20581;-79
2022/06/27 06:46:19;;;;;;;2.03;1.10;;;22.70;99.90;;;;;;5026067;28;20456;-79
2022/06/27 06:48:48;;;;;;;2.63;1.47;;;23.20;61.10;;;;;;5027162;28;20482;-80
2022/06/27 06:51:18;;;;;;;1.93;1.07;;;23.20;99.90;;;;;;5026695;28;21061;-79
2022/06/27 06:53:46;;;;;;;1.63;0.90;;;23.30;99.90;;;;;;5028899;28;20550;-80
2022/06/27 06:56:15;;;;;;;0.73;0.73;;;23.30;99.90;;;;;;5023705;28;20471;-80
2022/06/27 06:58:44;;;;;;;1.50;1.40;;;23.40;99.90;;;;;;5027368;28;20498;-80
2022/06/27 07:01:12;;;;;;;0.80;0.80;;;23.40;99.90;;;;;;5029204;28;20448;-80
2022/06/27 07:03:40;;;;;;;1.13;0.80;;;23.40;99.90;;;;;;5027669;28;20454;-80
2022/06/27 07:06:09;;;;;;;0.70;0.70;;;23.50;99.90;;;;;;5027107;28;20455;-79
2022/06/27 07:08:40;;;;;;;0.80;0.80;;;23.50;99.90;;;;;;5026171;28;21107;-80
2022/06/27 07:11:09;;;;;;;0.83;0.83;;;23.50;99.90;;;;;;5026748;28;20489;-80
2022/06/27 07:13:39;;;;;;;0.80;0.70;;;23.60;99.90;;;;;;5026276;28;20464;-80
2022/06/27 07:16:07;;;;;;;1.40;1.30;;;23.60;99.90;;;;;;5022022;28;20464;-80
2022/06/27 07:18:37;;;;;;;1.13;0.90;;;23.70;99.90;;;;;;5026494;28;21045;-80
2022/06/27 07:21:06;;;;;;;0.90;0.80;;;23.70;99.90;;;;;;5027864;28;20518;-80
2022/06/27 07:23:35;;;;;;;0.97;0.97;;;23.80;31.90;;;;;;5024423;28;20448;-80
2022/06/27 07:26:05;;;;;;;2.17;1.00;;;23.80;99.90;;;;;;5026083;28;21314;-80
2022/06/27 07:28:33;;;;;;;0.60;0.60;;;23.90;54.90;;;;;;5025779;28;20481;-80
2022/06/27 07:31:08;;;;;;;1.23;0.80;;;23.90;99.90;;;;;;5018250;28;20495;-80
2022/06/27 07:33:38;;;;;;;0.80;0.80;;;23.90;1.00;;;;;;5021833;28;20474;-80
2022/06/27 07:36:08;;;;;;;0.80;0.80;;;23.90;20.70;;;;;;5025334;28;20469;-80
2022/06/27 07:38:38;;;;;;;0.60;0.60;;;23.90;1.00;;;;;;5026236;28;20873;-80
2022/06/27 07:41:08;;;;;;;0.93;0.93;;;23.90;14.40;;;;;;5026853;28;20525;-80
2022/06/27 07:43:37;;;;;;;1.33;0.70;;;24.00;1.00;;;;;;5025539;28;20526;-80
2022/06/27 07:46:05;;;;;;;1.87;0.73;;;23.90;1.00;;;;;;5020419;28;20468;-80
2022/06/27 07:48:34;;;;;;;0.63;0.63;;;24.00;1.00;;;;;;5022304;28;20487;-80
2022/06/27 07:51:02;;;;;;;1.00;0.70;;;23.90;1.00;;;;;;5027605;28;20460;-80
2022/06/27 07:53:32;;;;;;;1.67;1.03;;;24.00;1.00;;;;;;5021969;28;20508;-80
2022/06/27 07:56:06;;;;;;;0.60;0.60;;;24.00;1.00;;;;;;5017907;28;21831;-79
2022/06/27 07:58:38;;;;;;;1.10;0.90;;;24.00;1.00;;;;;;5022858;28;20468;-80
2022/06/27 08:01:08;;;;;;;1.00;0.83;;;24.10;1.00;;;;;;5022199;28;20531;-81
2022/06/27 08:03:39;;;;;;;1.03;0.93;;;24.10;1.00;;;;;;5023829;28;20452;-80
2022/06/27 08:06:10;;;;;;;2.70;0.90;;;24.10;1.00;;;;;;5029297;28;21089;-80
2022/06/27 08:08:41;;;;;;;0.60;0.60;;;24.10;1.00;;;;;;5022146;28;20476;-80
2022/06/27 08:11:11;;;;;;;1.87;0.73;;;24.10;1.00;;;;;;5024020;28;20565;-80
2022/06/27 08:13:43;;;;;;;0.67;0.67;;;24.20;1.00;;;;;;5024461;28;20439;-80
2022/06/27 08:16:14;;;;;;;0.70;0.70;;;24.30;1.00;;;;;;5022242;28;20468;-80
2022/06/27 08:18:44;;;;;;;0.80;0.70;;;24.30;1.00;;;;;;5026280;28;20475;-80
2022/06/27 08:21:13;;;;;;;0.70;0.70;;;24.30;1.00;;;;;;5023320;28;20499;-79
2022/06/27 08:23:41;;;;;;;0.90;0.80;;;24.30;1.00;;;;;;5023972;28;20448;-80
2022/06/27 08:26:12;;;;;;;1.40;0.90;;;24.20;1.00;;;;;;5023021;28;20459;-80
2022/06/27 08:28:43;;;;;;;1.10;0.80;;;24.30;1.00;;;;;;5025517;28;20472;-80
2022/06/27 08:31:13;;;;;;;1.13;0.80;;;24.40;1.00;;;;;;5020058;28;20484;-80
2022/06/27 08:33:43;;;;;;;0.60;0.60;;;24.40;1.00;;;;;;5025419;28;20492;-80
2022/06/27 08:36:12;;;;;;;1.00;0.90;;;24.40;1.00;;;;;;5027422;28;20444;-81
2022/06/27 08:38:42;;;;;;;0.80;0.70;;;24.40;1.00;;;;;;5028089;28;20484;-80
2022/06/27 08:41:12;;;;;;;1.70;0.90;;;24.40;1.00;;;;;;5012712;28;20477;-79
2022/06/27 08:43:43;;;;;;;0.80;0.80;;;24.40;99.90;;;;;;5029631;28;20456;-80
2022/06/27 08:46:15;;;;;;;0.80;0.70;;;24.50;1.00;;;;;;5018070;28;20491;-80
2022/06/27 08:48:45;;;;;;;0.70;0.70;;;24.40;1.00;;;;;;5028495;28;20854;-80
2022/06/27 08:51:15;;;;;;;0.93;0.80;;;24.40;1.00;;;;;;5026294;28;20566;-80
2022/06/27 08:53:44;;;;;;;0.90;0.90;;;24.40;1.00;;;;;;5023033;28;20456;-80
2022/06/27 08:56:13;;;;;;;0.83;0.80;;;24.40;1.00;;;;;;5024472;28;20452;-80
2022/06/27 08:58:46;;;;;;;1.30;0.83;;;24.50;1.00;;;;;;5023777;28;20472;-80
2022/06/27 09:01:16;;;;;;;0.80;0.80;;;24.50;1.00;;;;;;5025679;28;20475;-80
2022/06/27 09:03:58;;;;;;;1.37;1.30;;;24.50;1.00;;;;;;5024865;28;20510;-80
2022/06/27 09:06:30;;;;;;;1.00;0.87;;;24.50;1.00;;;;;;5024204;28;20512;-80
2022/06/27 09:09:08;;;;;;;0.87;0.77;;;24.50;1.00;;;;;;5027972;28;20483;-81
2022/06/27 09:11:38;;;;;;;0.70;0.70;;;24.50;1.00;;;;;;5028353;28;20490;-80
2022/06/27 09:14:32;;;;;;;0.80;0.80;;;24.40;1.00;;;;;;5023616;28;20460;-80
2022/06/27 09:17:04;;;;;;;0.73;0.73;;;24.50;1.00;;;;;;5023426;28;20881;-80
2022/06/27 09:19:46;;;;;;;0.87;0.87;;;24.40;1.00;;;;;;5023696;28;20468;-80
2022/06/27 09:22:17;;;;;;;1.73;0.70;;;24.40;1.00;;;;;;5020032;28;20972;-79
2022/06/27 09:24:59;;;;;;;0.90;0.90;;;24.40;1.00;;;;;;5023184;28;21242;-80
2022/06/27 09:27:38;;;;;;;0.80;0.80;;;24.30;1.00;;;;;;5024843;28;20516;-80
2022/06/27 09:30:31;;;;;;;1.00;0.90;;;24.40;1.00;;;;;;5021283;28;20455;-80
2022/06/27 09:33:01;;;;;;;1.17;0.80;;;24.40;1.00;;;;;;5025355;28;20456;-80
2022/06/27 09:35:33;;;;;;;1.23;0.70;;;24.30;1.00;;;;;;5023945;28;20555;-80
2022/06/27 09:38:03;;;;;;;0.80;0.80;;;24.40;1.00;;;;;;5023804;28;20499;-80
2022/06/27 09:40:34;;;;;;;1.00;0.80;;;24.40;1.00;;;;;;5019985;28;20461;-80
2022/06/27 09:43:06;;;;;;;0.80;0.80;;;24.40;1.00;;;;;;5020761;28;20972;-80
2022/06/27 09:45:37;;;;;;;0.90;0.80;;;24.40;1.00;;;;;;5019629;28;21076;-80
2022/06/27 09:48:16;;;;;;;2.27;1.30;;;24.40;1.00;;;;;;5022109;28;20507;-80
2022/06/27 09:50:47;;;;;;;2.07;1.40;;;24.40;1.00;;;;;;5023169;28;20448;-83
2022/06/27 09:53:16;;;;;;;1.33;0.90;;;24.50;1.00;;;;;;5029695;28;20547;-82
2022/06/27 09:55:47;;;;;;;1.73;1.43;;;24.50;1.00;;;;;;5029509;28;20460;-82
2022/06/27 09:58:17;;;;;;;1.27;1.20;;;24.50;1.00;;;;;;5025072;28;20615;-81
2022/06/27 10:00:48;;;;;;;1.13;1.00;;;24.50;1.00;;;;;;5028769;28;20464;-82
2022/06/27 10:03:17;;;;;;;1.00;1.00;;;24.50;1.00;;;;;;5044743;28;20460;-81
2022/06/27 10:05:47;;;;;;;1.20;1.10;;;24.40;1.00;;;;;;5029625;28;20463;-81
2022/06/27 10:08:16;;;;;;;1.30;1.00;;;24.40;1.00;;;;;;5031445;28;21003;-82
2022/06/27 10:11:06;;;;;;;1.03;1.00;;;24.50;1.00;;;;;;5031898;28;20440;-81
2022/06/27 10:13:36;;;;;;;1.33;0.90;;;24.40;1.00;;;;;;5028731;28;20455;-81
2022/06/27 10:16:12;;;;;;;0.83;0.83;;;24.40;1.00;;;;;;5028258;28;20451;-82
2022/06/27 10:19:02;;;;;;;0.90;0.80;;;24.50;1.00;;;;;;5031866;28;20504;-82
2022/06/27 10:21:32;;;;;;;1.37;0.90;;;24.50;1.00;;;;;;5029256;28;20448;-82
2022/06/27 10:24:32;;;;;;;1.43;1.00;;;24.40;1.00;;;;;;5027078;28;20468;-81
2022/06/27 10:27:29;;;;;;;2.50;1.10;;;24.40;1.00;;;;;;5026530;28;20977;-82
2022/06/27 10:29:59;;;;;;;0.90;0.90;;;24.40;99.90;;;;;;5025986;28;20558;-81
2022/06/27 10:32:47;;;;;;;1.20;1.10;;;24.40;99.90;;;;;;5025281;28;20499;-82
2022/06/27 10:35:17;;;;;;;1.10;1.00;;;24.40;1.00;;;;;;5028839;28;20464;-83
2022/06/27 10:37:46;;;;;;;1.60;1.20;;;24.40;1.00;;;;;;5023570;28;20445;-82
2022/06/27 10:40:51;;;;;;;0.80;0.80;;;24.40;1.00;;;;;;5027457;28;20470;-82
2022/06/27 10:43:48;;;;;;;1.40;1.30;;;24.40;1.00;;;;;;5029951;28;21028;-83
2022/06/27 10:46:53;;;;;;;1.03;0.97;;;24.40;1.00;;;;;;5025659;28;20464;-82
2022/06/27 10:49:25;;;;;;;1.00;0.90;;;24.50;1.00;;;;;;5023781;28;20484;-82
2022/06/27 10:51:54;;;;;;;1.87;1.17;;;24.50;1.00;;;;;;5029827;28;20479;-81
2022/06/27 10:54:22;;;;;;;1.43;1.10;;;24.50;1.00;;;;;;5030659;28;20464;-81
2022/06/27 10:56:53;;;;;;;1.50;0.90;;;24.60;1.00;;;;;;5024050;28;20479;-82
2022/06/27 10:59:55;;;;;;;3.37;1.07;;;24.60;1.00;;;;;;5025961;28;20487;-82
2022/06/27 11:02:28;;;;;;;1.27;1.00;;;24.60;1.00;;;;;;4985561;28;20465;-82
2022/06/27 11:04:58;;;;;;;0.90;0.90;;;24.70;1.00;;;;;;5024221;28;20464;-80
2022/06/27 11:07:28;;;;;;;1.07;1.00;;;24.80;1.00;;;;;;5027675;28;20456;-82
2022/06/27 11:09:57;;;;;;;1.80;1.50;;;24.70;1.00;;;;;;5025846;28;20476;-82
2022/06/27 11:12:30;;;;;;;1.50;1.40;;;24.70;1.00;;;;;;5027611;28;20481;-82
2022/06/27 11:15:00;;;;;;;1.30;1.20;;;24.70;1.00;;;;;;5030438;28;20441;-81
2022/06/27 11:17:38;;;;;;;2.63;1.37;;;24.60;1.00;;;;;;5029734;28;20472;-81
2022/06/27 11:20:20;;;;;;;1.30;1.20;;;24.60;1.00;;;;;;5027440;28;20471;-82
2022/06/27 11:23:06;;;;;;;1.47;1.33;;;24.60;1.00;;;;;;5030358;28;20487;-81
2022/06/27 11:25:38;;;;;;;1.40;1.30;;;24.60;1.00;;;;;;5029979;28;20455;-82
2022/06/27 11:33:37;;;;;;;1.50;1.40;;;24.50;99.90;;;;;;5024048;28;20495;-82
2022/06/27 11:36:07;;;;;;;1.67;1.57;;;24.50;99.90;;;;;;5029209;28;20534;-83
2022/06/27 11:38:44;;;;;;;1.47;1.30;;;24.50;99.90;;;;;;5028465;28;20472;-82
2022/06/27 11:41:14;;;;;;;1.37;1.20;;;24.50;99.90;;;;;;5030740;28;20440;-82
2022/06/27 11:43:53;;;;;;;2.73;1.37;;;24.50;99.90;;;;;;5037500;28;20842;-82
2022/06/27 11:46:29;;;;;;;1.17;1.17;;;24.50;99.90;;;;;;5031423;28;20517;-82
2022/06/27 11:49:00;;;;;;;1.20;1.10;;;24.50;99.90;;;;;;5037049;28;20480;-83
2022/06/27 11:51:33;;;;;;;1.57;1.47;;;24.50;99.90;;;;;;5037104;28;20459;-81
2022/06/27 11:54:08;;;;;;;1.10;1.10;;;24.60;99.90;;;;;;5029459;28;20480;-81
2022/06/27 11:56:39;;;;;;;1.40;1.00;;;24.50;99.90;;;;;;5034779;28;20487;-82
2022/06/27 11:59:09;;;;;;;1.20;1.13;;;24.50;99.90;;;;;;5032755;28;20555;-81
2022/06/27 12:01:52;;;;;;;1.10;1.00;;;24.70;99.90;;;;;;5030336;28;20457;-83
2022/06/27 12:04:23;;;;;;;0.83;0.83;;;24.60;99.90;;;;;;5037276;28;20444;-82
2022/06/27 12:06:56;;;;;;;1.03;1.00;;;24.60;99.90;;;;;;5036871;28;20455;-82
2022/06/27 12:09:26;;;;;;;1.33;1.17;;;24.60;99.90;;;;;;5029523;28;20476;-83
2022/06/27 12:11:59;;;;;;;1.60;1.20;;;24.60;99.90;;;;;;5030006;28;20444;-82
2022/06/27 12:14:29;;;;;;;1.07;1.00;;;24.70;99.90;;;;;;5027487;28;20478;-82
2022/06/27 12:16:59;;;;;;;1.20;1.07;;;24.60;99.90;;;;;;5032500;28;20457;-82
2022/06/27 12:19:29;;;;;;;3.83;0.90;;;24.50;99.90;;;;;;5025354;28;20887;-83
2022/06/27 12:21:59;;;;;;;1.27;1.07;;;24.50;99.90;;;;;;5029012;28;20452;-82
2022/06/27 12:24:46;;;;;;;1.60;1.13;;;24.60;99.90;;;;;;5032414;28;20492;-81
2022/06/27 12:27:14;;;;;;;1.37;1.27;;;24.50;99.90;;;;;;5035127;28;20462;-82
2022/06/27 12:29:42;;;;;;;1.20;1.10;;;24.40;99.90;;;;;;5026541;28;20480;-82
2022/06/27 12:32:14;;;;;;;1.13;1.10;;;24.50;99.90;;;;;;5048597;28;20464;-81
2022/06/27 12:34:43;;;;;;;1.43;1.33;;;24.40;99.90;;;;;;5036180;28;20452;-82
2022/06/27 12:37:13;;;;;;;1.83;1.73;;;24.40;99.90;;;;;;5032222;28;20484;-83
2022/06/27 12:39:41;;;;;;;1.20;1.10;;;24.30;99.90;;;;;;5029502;28;20472;-81
2022/06/27 12:42:09;;;;;;;1.00;1.00;;;24.30;99.90;;;;;;5028269;28;20535;-82
2022/06/27 12:44:38;;;;;;;1.90;1.30;;;24.30;99.90;;;;;;5029513;28;20459;-82
2022/06/27 12:47:06;;;;;;;1.43;1.10;;;24.30;99.90;;;;;;5030749;28;21025;-82
2022/06/27 12:49:34;;;;;;;1.30;1.07;;;24.30;99.90;;;;;;5030459;28;20484;-82
2022/06/27 12:52:04;;;;;;;1.30;1.20;;;24.30;99.90;;;;;;5024375;28;20967;-82
2022/06/27 12:54:33;;;;;;;1.10;1.10;;;24.30;99.90;;;;;;5024399;28;20487;-81
2022/06/27 12:57:04;;;;;;;1.37;1.10;;;24.40;99.90;;;;;;5026548;28;20453;-82
2022/06/27 12:59:33;;;;;;;1.03;1.03;;;24.40;99.90;;;;;;5022534;28;20472;-81
2022/06/27 13:02:01;;;;;;;1.40;1.10;;;24.40;99.90;;;;;;5023453;28;20457;-81
2022/06/27 13:04:29;;;;;;;1.20;1.10;;;24.30;99.90;;;;;;5025342;28;20858;-82
2022/06/27 13:06:58;;;;;;;1.10;1.10;;;24.30;99.90;;;;;;5025946;28;20481;-82
2022/06/27 13:09:26;;;;;;;1.20;1.10;;;24.30;99.90;;;;;;5028227;28;20476;-82
2022/06/27 13:11:56;;;;;;;1.50;1.20;;;24.30;99.90;;;;;;5026207;28;20456;-81
2022/06/27 13:14:24;;;;;;;1.10;1.00;;;24.30;99.90;;;;;;5023621;28;21018;-82
2022/06/27 13:16:54;;;;;;;1.43;1.33;;;24.30;99.90;;;;;;5024713;28;20467;-82
2022/06/27 13:19:23;;;;;;;1.17;1.10;;;24.30;99.90;;;;;;5026995;28;20575;-82